createdAt,value
2022-09-22T00:04:36.825Z,2.05
2022-09-22T00:14:39.680Z,2.38
2022-09-22T00:24:42.006Z,1.80
2022-09-22T00:34:43.947Z,2.20
2022-09-22T00:44:46.841Z,1.80
2022-09-22T00:54:49.429Z,1.88
2022-09-22T01:04:54.766Z,2.03
2022-09-22T01:15:29.388Z,2.47
2022-09-22T01:26:05.885Z,1.70
2022-09-22T01:36:27.547Z,1.77
2022-09-22T01:46:41.889Z,2.05
2022-09-22T01:56:48.374Z,1.90
2022-09-22T02:07:00.409Z,1.80
2022-09-22T02:17:03.847Z,2.05
2022-09-22T02:27:16.445Z,2.03
2022-09-22T02:37:55.221Z,1.63
2022-09-22T02:48:20.024Z,2.30
2022-09-22T02:58:22.301Z,2.13
2022-09-22T03:08:24.264Z,1.63
2022-09-22T03:18:26.182Z,2.17
2022-09-22T03:28:28.507Z,2.33
2022-09-22T03:38:30.665Z,2.03
2022-09-22T03:48:33.582Z,2.22
2022-09-22T03:58:35.884Z,2.05
2022-09-22T04:08:38.085Z,1.95
2022-09-22T04:18:44.368Z,2.17
2022-09-22T04:28:46.923Z,1.67
2022-09-22T04:38:48.887Z,2.22
2022-09-22T04:48:51.082Z,1.73
2022-09-22T04:58:53.203Z,1.90
2022-09-22T05:08:55.309Z,1.70
2022-09-22T05:18:59.788Z,2.28
2022-09-22T05:29:02.030Z,1.80
2022-09-22T05:39:04.336Z,2.13
2022-09-22T05:49:06.735Z,2.08
2022-09-22T05:59:08.829Z,2.35
2022-09-22T06:09:10.827Z,2.15
2022-09-22T06:19:12.992Z,2.58
2022-09-22T06:29:15.330Z,2.85
2022-09-22T06:39:17.582Z,2.60
2022-09-22T06:49:20.873Z,3.30
2022-09-22T06:59:23.306Z,3.72
2022-09-22T07:09:26.711Z,3.38
2022-09-22T07:19:29.429Z,3.22
2022-09-22T07:29:31.461Z,3.47
2022-09-22T07:39:33.683Z,4.50
2022-09-22T07:49:35.724Z,2.78
2022-09-22T07:59:40.033Z,2.78
2022-09-22T08:09:43.108Z,3.10
2022-09-22T08:19:45.114Z,2.90
2022-09-22T08:29:47.012Z,2.60
2022-09-22T08:39:49.181Z,1.77
2022-09-22T08:50:12.949Z,2.33
2022-09-22T09:00:20.616Z,2.50
2022-09-22T09:10:30.173Z,2.47
2022-09-22T09:20:49.342Z,2.33
2022-09-22T09:30:54.898Z,2.13
2022-09-22T09:41:21.387Z,2.65
2022-09-22T09:51:26.821Z,2.28
2022-09-22T10:01:31.084Z,1.77
2022-09-22T10:11:36.724Z,1.60
2022-09-22T10:21:39.385Z,1.55
2022-09-22T10:31:45.044Z,1.40
2022-09-22T10:41:51.863Z,1.50
2022-09-22T10:52:00.680Z,1.27
2022-09-22T11:02:24.124Z,1.35
2022-09-22T11:12:46.642Z,1.33
2022-09-22T11:23:01.022Z,1.20
2022-09-22T11:33:23.619Z,1.17
2022-09-22T11:43:46.683Z,1.02
2022-09-22T11:53:57.069Z,1.15
2022-09-22T12:04:24.021Z,0.77
2022-09-22T12:14:26.663Z,0.95
2022-09-22T12:24:28.880Z,1.23
2022-09-22T12:34:44.442Z,0.88
2022-09-22T12:45:14.679Z,1.00
2022-09-22T12:55:24.624Z,0.90
2022-09-22T13:05:29.006Z,0.95
2022-09-22T13:15:34.326Z,0.90
2022-09-22T13:25:35.627Z,1.15
2022-09-22T13:35:43.770Z,0.68
2022-09-22T13:45:50.489Z,1.25
2022-09-22T13:55:53.341Z,0.70
2022-09-22T14:05:56.701Z,0.98
2022-09-22T14:15:59.084Z,0.90
2022-09-22T14:26:05.622Z,1.33
2022-09-22T14:36:23.944Z,1.10
2022-09-22T14:46:43.901Z,1.58
2022-09-22T14:56:46.923Z,1.67
2022-09-22T15:06:50.222Z,0.68
2022-09-22T15:16:52.626Z,0.82
2022-09-22T15:26:59.408Z,0.80
2022-09-22T15:37:01.130Z,0.95
2022-09-22T15:47:02.848Z,1.38
2022-09-22T15:57:07.033Z,0.85
2022-09-22T16:07:13.880Z,1.20
2022-09-22T16:17:15.581Z,0.93
2022-09-22T16:27:17.299Z,0.63
2022-09-22T16:37:19.626Z,1.00
2022-09-22T16:47:23.781Z,0.70
2022-09-22T16:57:25.137Z,0.73
2022-09-22T17:07:27.182Z,0.90
2022-09-22T17:17:28.580Z,1.10
2022-09-22T17:27:29.920Z,1.92
2022-09-22T17:37:32.038Z,1.80
2022-09-22T17:47:52.175Z,1.30
2022-09-22T17:57:54.454Z,1.20
2022-09-22T18:08:00.086Z,1.50
2022-09-22T18:18:01.605Z,1.80
2022-09-22T18:28:04.022Z,1.40
2022-09-22T18:38:05.941Z,1.60
2022-09-22T18:48:07.565Z,1.10
2022-09-22T18:58:09.121Z,1.45
2022-09-22T19:08:14.047Z,1.13
2022-09-22T19:18:15.603Z,1.33
2022-09-22T19:28:17.540Z,1.75
2022-09-22T19:38:19.939Z,1.00
2022-09-22T19:48:22.005Z,1.25
2022-09-22T19:58:24.303Z,1.65
2022-09-22T20:08:28.319Z,1.00
2022-09-22T20:18:31.836Z,1.38
2022-09-22T20:28:33.684Z,1.38
2022-09-22T20:38:35.316Z,1.33
2022-09-22T20:48:36.840Z,1.38
2022-09-22T20:58:45.463Z,1.25
2022-09-22T21:09:06.747Z,1.00
2022-09-22T21:19:09.361Z,1.00
2022-09-22T21:29:12.164Z,0.98
2022-09-22T21:39:13.700Z,1.10
2022-09-22T21:49:15.108Z,1.23
2022-09-22T21:59:16.900Z,1.27
2022-09-22T22:09:25.437Z,1.20
2022-09-22T22:19:28.598Z,1.20
2022-09-22T22:29:34.218Z,2.15
2022-09-22T22:39:35.603Z,1.10
2022-09-22T22:49:36.980Z,1.25
2022-09-22T22:59:38.340Z,1.40
2022-09-22T23:09:39.878Z,1.25
2022-09-22T23:19:42.716Z,1.80
2022-09-22T23:29:44.185Z,1.92
2022-09-22T23:39:45.358Z,1.95
2022-09-22T23:49:47.916Z,2.25
2022-09-22T23:59:49.099Z,2.00
